Chester, United Kingdom
Current Conditions -  °F | °C
As of 8:50 AM on Monday 22 Dec 2014 (Local Time) from EGNR Reporting Station
Broken Clouds Broken Clouds  
Wind Chill: 13°   Ceiling: 1800
Heat Index: 13°   Visibility: 6mi
Dew Point:   Wind: 22mph
Humidity: 77%   Direction: 240°WSW
Pressure: 29.88"   Gusts: 35mph
Location:  53.19°N, 2.89°W
Report Text: EGNR 220850Z 24019G30KT 210V280 9999 BKN018 13/09 Q1012
Loading
Personal Weather Stations






























Interactive Weather Map New forecast layout! Learn more

10-Day Weather Forecast

Advertisements
Track Severe Weather on mobile